createdAt,value
2022-10-08T00:00:14.867Z,8.2
2022-10-08T00:05:20.972Z,8.1
2022-10-08T00:10:27.093Z,8.4
2022-10-08T00:15:33.217Z,8.5
2022-10-08T00:20:39.314Z,8.7
2022-10-08T00:25:45.459Z,8.8
2022-10-08T00:30:51.540Z,8.8
2022-10-08T00:35:56.680Z,8.9
2022-10-08T00:41:02.790Z,9.1
2022-10-08T00:46:08.911Z,9
2022-10-08T00:51:15.037Z,9
2022-10-08T00:56:21.174Z,9.1
2022-10-08T01:01:27.243Z,9.3
2022-10-08T01:06:33.371Z,9.3
2022-10-08T01:11:39.457Z,9.4
2022-10-08T01:16:45.598Z,9.3
2022-10-08T01:21:51.694Z,8.9
2022-10-08T01:26:57.810Z,8.6
2022-10-08T01:32:03.928Z,8.8
2022-10-08T01:37:10.016Z,8.5
2022-10-08T01:42:15.145Z,8.5
2022-10-08T01:47:21.286Z,8.5
2022-10-08T01:52:27.386Z,8.6
2022-10-08T01:57:33.487Z,8.7
2022-10-08T02:02:39.631Z,8.8
2022-10-08T02:07:45.716Z,8.7
2022-10-08T02:12:51.923Z,8.5
2022-10-08T02:17:57.951Z,8.7
2022-10-08T02:23:04.072Z,8.7
2022-10-08T02:28:10.166Z,8.7
2022-10-08T02:33:16.280Z,8.7
2022-10-08T02:38:22.398Z,8.6
2022-10-08T02:43:28.501Z,8.6
2022-10-08T02:48:33.637Z,8.5
2022-10-08T02:53:39.740Z,8.5
2022-10-08T02:58:45.868Z,8.4
2022-10-08T03:03:52.005Z,8.5
2022-10-08T03:08:58.095Z,8.2
2022-10-08T03:14:04.201Z,8.3
2022-10-08T03:19:10.313Z,8.3
2022-10-08T03:24:16.521Z,8.1
2022-10-08T03:29:22.547Z,7.8
2022-10-08T03:34:28.651Z,8.1
2022-10-08T03:39:34.826Z,7.8
2022-10-08T03:44:40.882Z,7.8
2022-10-08T03:49:46.990Z,7.6
2022-10-08T03:54:52.151Z,7.6
2022-10-08T03:59:58.248Z,7.6
2022-10-08T04:05:04.346Z,7.3
2022-10-08T04:10:10.550Z,7
2022-10-08T04:15:16.567Z,7
2022-10-08T04:20:22.682Z,7
2022-10-08T04:25:28.799Z,7.2
2022-10-08T04:30:34.945Z,7.2
2022-10-08T04:35:41.035Z,7.2
2022-10-08T04:40:47.133Z,7.3
2022-10-08T04:45:53.244Z,7.5
2022-10-08T04:50:59.374Z,7.5
2022-10-08T04:56:05.545Z,7.6
2022-10-08T05:01:10.608Z,7.4
2022-10-08T05:06:16.727Z,7.6
2022-10-08T05:11:22.868Z,7.5
2022-10-08T05:16:28.951Z,7.4
2022-10-08T05:21:35.068Z,7.2
2022-10-08T05:26:41.185Z,7.1
2022-10-08T05:31:47.280Z,7.4
2022-10-08T05:36:53.471Z,7.3
2022-10-08T05:41:59.612Z,7.1
2022-10-08T05:47:05.631Z,7
2022-10-08T05:52:11.738Z,7.1
2022-10-08T05:57:17.856Z,6.9
2022-10-08T06:02:23.969Z,7.2
2022-10-08T06:07:29.127Z,7.3
2022-10-08T06:12:35.322Z,7.6
2022-10-08T06:17:41.315Z,8
2022-10-08T06:22:47.539Z,8.1
2022-10-08T06:27:53.567Z,8.5
2022-10-08T06:32:59.793Z,8.7
2022-10-08T06:38:05.798Z,8.8
2022-10-08T06:43:11.889Z,8.9
2022-10-08T06:53:24.150Z,9.2
2022-10-08T06:58:30.230Z,9.3
2022-10-08T07:03:36.345Z,9.3
2022-10-08T07:08:42.452Z,9.7
2022-10-08T07:13:47.598Z,10.3
2022-10-08T07:18:53.684Z,10.6
2022-10-08T07:23:59.829Z,10.7
2022-10-08T07:29:05.951Z,10.6
2022-10-08T07:34:12.075Z,10.9
2022-10-08T07:39:18.129Z,11.2
2022-10-08T07:44:24.271Z,11.5
2022-10-08T07:49:30.427Z,12
2022-10-08T07:54:36.494Z,12.8
2022-10-08T07:59:42.581Z,13.5
2022-10-08T08:09:54.801Z,13.6
2022-10-08T08:15:00.958Z,14.3
2022-10-08T08:20:06.039Z,14.5
2022-10-08T08:25:12.182Z,14.7
2022-10-08T08:30:18.280Z,14.7
2022-10-08T08:35:24.375Z,15.1
2022-10-08T08:40:30.482Z,15.5
2022-10-08T08:45:36.589Z,16
2022-10-08T08:50:42.706Z,16.6
2022-10-08T08:55:48.857Z,16.6
2022-10-08T09:00:54.922Z,15.8
2022-10-08T09:06:01.061Z,15.1
2022-10-08T09:11:07.148Z,14.8
2022-10-08T09:16:13.302Z,16.5
2022-10-08T09:21:19.422Z,15.2
2022-10-08T09:26:24.512Z,15.3
2022-10-08T09:31:30.635Z,14.8
2022-10-08T09:36:36.735Z,14.7
2022-10-08T09:41:42.846Z,14.5
2022-10-08T09:46:48.990Z,14.3
2022-10-08T09:51:55.087Z,14.4
2022-10-08T09:57:01.156Z,14.5
2022-10-08T10:07:13.406Z,14.2
2022-10-08T10:12:19.495Z,14
2022-10-08T10:17:25.627Z,13.7
2022-10-08T10:22:31.737Z,13.5
2022-10-08T10:27:37.843Z,13.5
2022-10-08T10:32:43.050Z,13.6
2022-10-08T10:37:49.076Z,13.7
2022-10-08T10:42:55.304Z,13.9
2022-10-08T10:48:01.307Z,14.4
2022-10-08T10:53:07.494Z,14.5
2022-10-08T10:58:13.533Z,14.2
2022-10-08T11:03:19.640Z,14.6
2022-10-08T11:08:25.748Z,14.5
2022-10-08T11:13:31.866Z,14.6
2022-10-08T11:18:37.995Z,14.3
2022-10-08T11:23:44.069Z,14.4
2022-10-08T11:28:50.217Z,14.2
2022-10-08T11:33:56.326Z,14.1
2022-10-08T11:39:01.472Z,14.4
2022-10-08T11:44:07.542Z,14.5
2022-10-08T11:49:13.651Z,14.6
2022-10-08T11:54:19.775Z,14.8
2022-10-08T11:59:25.865Z,14.7
2022-10-08T12:04:31.988Z,14.4
2022-10-08T12:09:38.091Z,14.7
2022-10-08T12:14:44.206Z,15.5
2022-10-08T12:19:50.317Z,15.4
2022-10-08T12:24:56.439Z,15
2022-10-08T12:30:02.589Z,14.7
2022-10-08T12:35:08.649Z,15.2
2022-10-08T12:40:14.761Z,15
2022-10-08T12:45:19.899Z,15.5
2022-10-08T12:50:26.006Z,15.2
2022-10-08T12:55:32.118Z,15.5
2022-10-08T13:00:38.216Z,16.3
2022-10-08T13:05:44.330Z,16.4
2022-10-08T13:10:50.438Z,16.3
2022-10-08T13:15:56.556Z,15.6
2022-10-08T13:21:02.658Z,14.9
2022-10-08T13:26:08.779Z,14.7
2022-10-08T13:31:14.904Z,15.6
2022-10-08T13:36:21.034Z,16
2022-10-08T13:41:27.132Z,16
2022-10-08T13:46:33.235Z,16.3
2022-10-08T13:51:38.419Z,15.8
2022-10-08T13:56:44.479Z,15.9
2022-10-08T14:01:50.589Z,15.6
2022-10-08T14:06:56.717Z,16.8
2022-10-08T14:12:02.872Z,18.5
2022-10-08T14:17:08.910Z,18.6
2022-10-08T14:22:15.022Z,16.2
2022-10-08T14:27:21.131Z,15.2
2022-10-08T14:32:27.291Z,17.5
2022-10-08T14:37:33.356Z,17.2
2022-10-08T14:42:39.553Z,18
2022-10-08T14:47:45.578Z,18.5
2022-10-08T14:52:51.796Z,18.4
2022-10-08T14:57:56.833Z,16
2022-10-08T15:03:03.032Z,14.7
2022-10-08T15:08:09.175Z,13.6
2022-10-08T15:13:15.191Z,12.9
2022-10-08T15:18:21.265Z,12.9
2022-10-08T15:23:27.361Z,12.8
2022-10-08T15:28:33.557Z,12.5
2022-10-08T15:33:39.698Z,12.3
2022-10-08T15:38:45.701Z,12.1
2022-10-08T15:43:51.822Z,12
2022-10-08T15:48:57.934Z,11.8
2022-10-08T15:54:04.122Z,11.9
2022-10-08T15:59:10.163Z,12
2022-10-08T16:04:15.285Z,12
2022-10-08T16:09:21.385Z,12
2022-10-08T16:14:27.554Z,11.9
2022-10-08T16:19:33.682Z,11.8
2022-10-08T16:24:39.724Z,11.8
2022-10-08T16:29:45.864Z,11.5
2022-10-08T16:34:50.967Z,11.3
2022-10-08T16:39:57.076Z,11.4
2022-10-08T16:45:03.229Z,11.1
2022-10-08T16:50:09.311Z,10.9
2022-10-08T16:55:15.424Z,10.9
2022-10-08T17:00:21.592Z,10.7
2022-10-08T17:05:27.678Z,10.5
2022-10-08T17:10:33.761Z,10.2
2022-10-08T17:15:39.863Z,10.5
2022-10-08T17:20:45.976Z,10.7
2022-10-08T17:25:52.092Z,10.2
2022-10-08T17:30:58.213Z,10.2
2022-10-08T17:36:04.320Z,10.1
2022-10-08T17:41:09.426Z,9.9
2022-10-08T17:46:15.563Z,9.5
2022-10-08T17:51:21.693Z,9.6
2022-10-08T18:01:33.920Z,9.5
2022-10-08T18:06:40.015Z,9.9
2022-10-08T18:11:46.106Z,10
2022-10-08T18:16:52.321Z,10
2022-10-08T18:21:58.389Z,9.7
2022-10-08T18:27:04.526Z,9.4
2022-10-08T18:32:10.613Z,9.5
2022-10-08T18:37:16.723Z,9.2
2022-10-08T18:42:22.865Z,9.3
2022-10-08T18:47:27.957Z,9
2022-10-08T18:52:34.061Z,8.8
2022-10-08T18:57:40.175Z,8.1
2022-10-08T19:02:46.336Z,7.7
2022-10-08T19:07:52.444Z,8.3
2022-10-08T19:12:58.650Z,8.4
2022-10-08T19:18:04.658Z,9.2
2022-10-08T19:23:10.895Z,8.6
2022-10-08T19:28:16.892Z,9
2022-10-08T19:33:23.006Z,8.6
2022-10-08T19:38:29.131Z,8.7
2022-10-08T19:43:35.313Z,8.5
2022-10-08T19:48:41.344Z,8.6
2022-10-08T19:53:46.491Z,8.5
2022-10-08T19:58:52.679Z,8
2022-10-08T20:03:58.796Z,8
2022-10-08T20:09:04.888Z,8
2022-10-08T20:14:10.997Z,7.5
2022-10-08T20:19:17.113Z,7.9
2022-10-08T20:24:23.273Z,7.9
2022-10-08T20:29:29.406Z,7.5
2022-10-08T20:34:35.500Z,7.4
2022-10-08T20:39:41.640Z,8.1
2022-10-08T20:44:47.745Z,7.8
2022-10-08T20:49:53.890Z,7.6
2022-10-08T20:54:59.970Z,7.1
2022-10-08T21:00:05.087Z,6.7
2022-10-08T21:05:11.210Z,6.3
2022-10-08T21:10:17.325Z,6
2022-10-08T21:15:23.476Z,5.6
2022-10-08T21:20:29.545Z,5.4
2022-10-08T21:25:35.705Z,5.3
2022-10-08T21:30:41.772Z,4.9
2022-10-08T21:35:47.883Z,4.8
2022-10-08T21:40:54.007Z,4.7
2022-10-08T21:46:00.102Z,4.6
2022-10-08T21:51:06.225Z,4.4
2022-10-08T21:56:12.338Z,4.3
2022-10-08T22:01:18.465Z,4.5
2022-10-08T22:06:23.625Z,4.5
2022-10-08T22:11:29.699Z,4.5
2022-10-08T22:16:35.889Z,4.4
2022-10-08T22:21:41.932Z,4.3
2022-10-08T22:26:48.062Z,4.6
2022-10-08T22:31:54.154Z,4.3
2022-10-08T22:37:00.367Z,4.4
2022-10-08T22:42:06.458Z,4.5
2022-10-08T22:47:12.497Z,4.4
2022-10-08T22:52:18.613Z,4.3
2022-10-08T22:57:24.734Z,4.2
2022-10-08T23:02:30.830Z,4
2022-10-08T23:07:37.047Z,3.9
2022-10-08T23:12:42.183Z,3.6
2022-10-08T23:17:48.215Z,3.6
2022-10-08T23:22:54.379Z,3.8
2022-10-08T23:28:00.476Z,4
2022-10-08T23:33:06.544Z,3.9
2022-10-08T23:38:12.659Z,4
2022-10-08T23:43:18.769Z,3.9
2022-10-08T23:48:24.872Z,3.8
2022-10-08T23:53:30.988Z,4.2
2022-10-08T23:58:37.112Z,3.8
